createdAt,value
2018-12-03T00:01:26.313Z,100.00
2018-12-03T00:04:32.999Z,100.00
2018-12-03T00:07:04.058Z,100.00
2018-12-03T00:09:35.012Z,100.00
2018-12-03T00:12:06.023Z,100.00
2018-12-03T00:14:36.932Z,100.00
2018-12-03T00:17:07.833Z,100.00
2018-12-03T00:19:38.458Z,100.00
2018-12-03T00:22:09.326Z,100.00
2018-12-03T00:24:40.050Z,100.00
2018-12-03T00:27:10.904Z,100.00
2018-12-03T00:29:41.720Z,100.00
2018-12-03T00:32:12.620Z,100.00
2018-12-03T00:34:43.655Z,100.00
2018-12-03T00:37:14.341Z,100.00
2018-12-03T00:39:45.271Z,100.00
2018-12-03T00:42:16.710Z,100.00
2018-12-03T00:44:47.686Z,100.00
2018-12-03T00:47:18.511Z,100.00
2018-12-03T00:49:49.270Z,100.00
2018-12-03T00:52:20.020Z,100.00
2018-12-03T00:54:50.788Z,100.00
2018-12-03T00:57:21.648Z,100.00
2018-12-03T00:59:52.482Z,100.00
2018-12-03T01:02:25.347Z,100.00
2018-12-03T01:04:56.524Z,100.00
2018-12-03T01:07:27.382Z,100.00
2018-12-03T01:09:58.241Z,100.00
2018-12-03T01:12:28.998Z,100.00
2018-12-03T01:14:59.691Z,100.00
2018-12-03T01:17:30.522Z,100.00
2018-12-03T01:20:01.465Z,100.00
2018-12-03T01:22:32.278Z,100.00
2018-12-03T01:25:03.201Z,100.00
2018-12-03T01:27:34.357Z,100.00
2018-12-03T01:30:07.464Z,100.00
2018-12-03T01:32:38.317Z,100.00
2018-12-03T01:35:11.328Z,100.00
2018-12-03T01:37:42.251Z,100.00
2018-12-03T01:40:14.788Z,100.00
2018-12-03T01:42:45.486Z,100.00
2018-12-03T01:45:16.283Z,100.00
2018-12-03T01:47:46.958Z,100.00
2018-12-03T01:50:17.559Z,100.00
2018-12-03T01:52:48.364Z,100.00
2018-12-03T01:55:19.523Z,100.00
2018-12-03T01:57:50.414Z,100.00
2018-12-03T02:00:21.754Z,100.00
2018-12-03T02:02:52.598Z,100.00
2018-12-03T02:05:23.504Z,100.00
2018-12-03T02:07:54.326Z,100.00
2018-12-03T02:10:25.159Z,100.00
2018-12-03T02:12:55.893Z,100.00
2018-12-03T02:15:26.947Z,100.00
2018-12-03T02:17:57.711Z,100.00
2018-12-03T02:20:28.477Z,100.00
2018-12-03T02:22:59.413Z,100.00
2018-12-03T02:25:30.205Z,100.00
2018-12-03T02:28:01.252Z,100.00
2018-12-03T02:30:32.099Z,100.00
2018-12-03T02:33:02.801Z,100.00
2018-12-03T02:35:33.594Z,100.00
2018-12-03T02:38:04.554Z,100.00
2018-12-03T02:40:35.935Z,100.00
2018-12-03T02:43:06.831Z,100.00
2018-12-03T02:45:37.835Z,100.00
2018-12-03T02:48:08.802Z,100.00
2018-12-03T02:50:39.673Z,100.00
2018-12-03T02:53:10.358Z,100.00
2018-12-03T02:55:41.345Z,100.00
2018-12-03T02:58:12.281Z,100.00
2018-12-03T03:00:43.545Z,100.00
2018-12-03T03:03:14.303Z,100.00
2018-12-03T03:05:45.084Z,100.00
2018-12-03T03:08:16.032Z,100.00
2018-12-03T03:10:46.841Z,100.00
2018-12-03T03:13:17.790Z,100.00
2018-12-03T03:15:48.555Z,100.00
2018-12-03T03:18:19.463Z,100.00
2018-12-03T03:20:50.224Z,100.00
2018-12-03T03:23:21.241Z,100.00
2018-12-03T03:25:51.862Z,100.00
2018-12-03T03:28:22.666Z,100.00
2018-12-03T03:30:53.544Z,100.00
2018-12-03T03:33:24.244Z,100.00
2018-12-03T03:35:54.927Z,100.00
2018-12-03T03:38:25.986Z,100.00
2018-12-03T03:40:56.779Z,100.00
2018-12-03T03:43:27.880Z,100.00
2018-12-03T03:45:58.675Z,100.00
2018-12-03T03:48:29.360Z,100.00
2018-12-03T03:51:00.166Z,100.00
2018-12-03T03:53:31.116Z,100.00
2018-12-03T03:56:02.046Z,100.00
2018-12-03T03:58:32.938Z,100.00
2018-12-03T04:01:03.563Z,100.00
2018-12-03T04:03:35.182Z,100.00
2018-12-03T04:06:06.109Z,100.00
2018-12-03T04:08:37.057Z,100.00
2018-12-03T04:11:07.977Z,100.00
2018-12-03T04:13:38.773Z,100.00
2018-12-03T04:16:09.583Z,100.00
2018-12-03T04:18:40.575Z,100.00
2018-12-03T04:21:11.180Z,100.00
2018-12-03T04:23:42.019Z,100.00
2018-12-03T04:26:12.906Z,100.00
2018-12-03T04:28:44.652Z,100.00
2018-12-03T04:31:15.315Z,100.00
2018-12-03T04:33:47.107Z,100.00
2018-12-03T04:36:18.217Z,100.00
2018-12-03T04:38:48.889Z,100.00
2018-12-03T04:41:19.795Z,100.00
2018-12-03T04:43:50.734Z,100.00
2018-12-03T04:46:21.528Z,100.00
2018-12-03T04:48:52.340Z,100.00
2018-12-03T04:51:24.121Z,100.00
2018-12-03T04:53:54.772Z,100.00
2018-12-03T04:56:26.649Z,100.00
2018-12-03T04:58:57.589Z,100.00
2018-12-03T05:01:28.660Z,100.00
2018-12-03T05:03:59.559Z,100.00
2018-12-03T05:06:30.562Z,100.00
2018-12-03T05:09:01.339Z,100.00
2018-12-03T05:11:32.315Z,100.00
2018-12-03T05:14:03.158Z,100.00
2018-12-03T05:16:33.966Z,100.00
2018-12-03T05:19:05.019Z,100.00
2018-12-03T05:21:35.777Z,100.00
2018-12-03T05:24:06.680Z,100.00
2018-12-03T05:26:38.155Z,100.00
2018-12-03T05:29:09.350Z,100.00
2018-12-03T05:31:40.284Z,100.00
2018-12-03T05:34:11.421Z,100.00
2018-12-03T05:36:42.423Z,100.00
2018-12-03T05:39:13.452Z,100.00
2018-12-03T05:41:44.875Z,100.00
2018-12-03T05:44:15.981Z,100.00
2018-12-03T05:46:47.073Z,100.00
2018-12-03T05:49:18.058Z,100.00
2018-12-03T05:51:48.776Z,100.00
2018-12-03T05:54:19.561Z,100.00
2018-12-03T05:56:50.391Z,100.00
2018-12-03T05:59:21.357Z,100.00
2018-12-03T06:01:52.177Z,100.00
2018-12-03T06:04:23.506Z,100.00
2018-12-03T06:06:54.342Z,100.00
2018-12-03T06:09:25.501Z,100.00
2018-12-03T06:11:56.457Z,100.00
2018-12-03T06:14:27.323Z,100.00
2018-12-03T06:16:58.268Z,100.00
2018-12-03T06:19:28.971Z,100.00
2018-12-03T06:21:59.822Z,100.00
2018-12-03T06:24:30.533Z,100.00
2018-12-03T06:27:01.434Z,100.00
2018-12-03T06:29:32.191Z,100.00
2018-12-03T06:32:03.221Z,100.00
2018-12-03T06:34:34.065Z,100.00
2018-12-03T06:37:04.982Z,100.00
2018-12-03T06:39:35.767Z,100.00
2018-12-03T06:42:06.713Z,100.00
2018-12-03T06:44:37.837Z,100.00
2018-12-03T06:47:11.108Z,100.00
2018-12-03T06:49:41.979Z,100.00
2018-12-03T06:52:12.744Z,100.00
2018-12-03T06:54:43.575Z,100.00
2018-12-03T06:57:14.216Z,100.00
2018-12-03T06:59:44.875Z,100.00
2018-12-03T07:02:15.588Z,100.00
2018-12-03T07:04:46.408Z,100.00
2018-12-03T07:07:17.094Z,100.00
2018-12-03T07:09:48.721Z,100.00
2018-12-03T07:12:19.554Z,100.00
2018-12-03T07:14:50.272Z,100.00
2018-12-03T07:17:21.119Z,100.00
2018-12-03T07:19:51.998Z,100.00
2018-12-03T07:22:23.255Z,100.00
2018-12-03T07:24:54.632Z,100.00
2018-12-03T07:27:25.368Z,100.00
2018-12-03T07:29:56.653Z,100.00
2018-12-03T07:32:27.508Z,100.00
2018-12-03T07:34:59.817Z,100.00
2018-12-03T07:37:30.609Z,100.00
2018-12-03T07:40:01.480Z,100.00
2018-12-03T07:42:32.209Z,100.00
2018-12-03T07:45:04.268Z,100.00
2018-12-03T07:47:35.474Z,100.00
2018-12-03T07:50:08.363Z,100.00
2018-12-03T07:52:39.112Z,100.00
2018-12-03T07:55:15.972Z,100.00
2018-12-03T07:58:00.664Z,100.00
2018-12-03T08:00:36.021Z,100.00
2018-12-03T08:03:07.649Z,100.00
2018-12-03T08:05:39.818Z,100.00
2018-12-03T08:08:11.045Z,100.00
2018-12-03T08:10:43.966Z,100.00
2018-12-03T08:13:16.205Z,100.00
2018-12-03T08:15:47.538Z,100.00
2018-12-03T08:18:22.227Z,100.00
2018-12-03T08:21:01.854Z,100.00
2018-12-03T08:23:39.494Z,100.00
2018-12-03T08:26:12.514Z,100.00
2018-12-03T08:28:44.325Z,100.00
2018-12-03T08:31:16.450Z,100.00
2018-12-03T08:33:48.653Z,100.00
2018-12-03T08:36:20.831Z,100.00
2018-12-03T08:38:52.841Z,100.00
2018-12-03T08:41:24.098Z,100.00
2018-12-03T08:43:55.941Z,100.00
2018-12-03T08:46:27.952Z,100.00
2018-12-03T08:48:59.606Z,100.00
2018-12-03T08:51:31.156Z,100.00
2018-12-03T08:54:02.662Z,100.00
2018-12-03T08:56:34.730Z,100.00
2018-12-03T08:59:07.666Z,100.00
2018-12-03T09:01:39.592Z,100.00
2018-12-03T09:04:19.259Z,100.00
2018-12-03T09:06:50.702Z,100.00
2018-12-03T09:09:22.019Z,100.00
2018-12-03T09:11:54.314Z,100.00
2018-12-03T09:14:32.867Z,100.00
2018-12-03T09:17:04.175Z,100.00
2018-12-03T09:19:35.621Z,100.00
2018-12-03T09:22:06.916Z,100.00
2018-12-03T09:24:38.223Z,100.00
2018-12-03T09:27:10.040Z,100.00
2018-12-03T09:29:43.255Z,100.00
2018-12-03T09:32:14.668Z,100.00
2018-12-03T09:34:46.243Z,100.00
2018-12-03T09:37:17.519Z,100.00
2018-12-03T09:39:52.214Z,100.00
2018-12-03T09:42:23.749Z,100.00
2018-12-03T09:44:55.237Z,100.00
2018-12-03T09:47:26.763Z,100.00
2018-12-03T09:49:58.543Z,100.00
2018-12-03T09:52:30.247Z,100.00
2018-12-03T09:55:02.054Z,100.00
2018-12-03T09:57:33.630Z,100.00
2018-12-03T10:00:05.336Z,100.00
2018-12-03T10:02:39.266Z,100.00
2018-12-03T10:05:12.000Z,100.00
2018-12-03T10:07:43.121Z,100.00
2018-12-03T10:10:16.727Z,100.00
2018-12-03T10:12:48.229Z,100.00
2018-12-03T10:15:19.868Z,100.00
2018-12-03T10:17:53.538Z,100.00
2018-12-03T10:20:25.571Z,100.00
2018-12-03T10:22:56.394Z,100.00
2018-12-03T10:25:27.512Z,100.00
2018-12-03T10:28:03.059Z,100.00
2018-12-03T10:30:34.168Z,100.00
2018-12-03T10:33:05.110Z,100.00
2018-12-03T10:35:39.452Z,100.00
2018-12-03T10:38:19.439Z,100.00
2018-12-03T10:41:03.133Z,100.00
2018-12-03T10:43:34.824Z,100.00
2018-12-03T10:46:06.336Z,100.00
2018-12-03T10:48:37.887Z,100.00
2018-12-03T10:51:18.877Z,100.00
2018-12-03T10:53:51.849Z,100.00
2018-12-03T10:56:24.075Z,100.00
2018-12-03T10:58:56.184Z,100.00
2018-12-03T11:01:27.623Z,100.00
2018-12-03T11:04:01.021Z,100.00
2018-12-03T11:06:32.271Z,100.00
2018-12-03T11:09:03.404Z,100.00
2018-12-03T11:11:34.892Z,100.00
2018-12-03T11:14:09.266Z,100.00
2018-12-03T11:16:41.479Z,100.00
2018-12-03T11:19:12.847Z,100.00
2018-12-03T11:21:44.619Z,100.00
2018-12-03T11:24:18.666Z,100.00
2018-12-03T11:26:53.475Z,100.00
2018-12-03T11:29:24.670Z,100.00
2018-12-03T11:31:56.827Z,100.00
2018-12-03T11:34:28.336Z,100.00
2018-12-03T11:37:03.744Z,100.00
2018-12-03T11:39:47.113Z,100.00
2018-12-03T11:42:18.363Z,99.75
2018-12-03T11:44:51.425Z,98.84
2018-12-03T11:47:22.907Z,97.83
2018-12-03T11:49:53.962Z,98.13
2018-12-03T11:52:25.740Z,97.94
2018-12-03T11:54:57.295Z,97.08
2018-12-03T11:57:28.827Z,97.49
2018-12-03T12:00:00.621Z,100.00
2018-12-03T12:02:32.674Z,100.00
2018-12-03T12:05:07.644Z,100.00
2018-12-03T12:07:42.391Z,100.00
2018-12-03T12:10:11.754Z,100.00
2018-12-03T12:12:43.990Z,100.00
2018-12-03T12:15:15.812Z,100.00
2018-12-03T12:17:47.238Z,100.00
2018-12-03T12:20:19.248Z,100.00
2018-12-03T12:22:52.297Z,100.00
2018-12-03T12:25:24.202Z,100.00
2018-12-03T12:27:59.823Z,100.00
2018-12-03T12:30:31.961Z,100.00
2018-12-03T12:33:05.290Z,100.00
2018-12-03T12:35:38.152Z,100.00
2018-12-03T12:38:09.075Z,100.00
2018-12-03T12:40:41.518Z,99.03
2018-12-03T12:43:12.776Z,98.38
2018-12-03T12:46:20.612Z,97.51
2018-12-03T12:48:52.390Z,95.82
2018-12-03T12:51:23.938Z,95.86
2018-12-03T12:53:55.091Z,95.88
2018-12-03T12:56:26.094Z,94.24
2018-12-03T12:58:57.438Z,95.73
2018-12-03T13:01:29.339Z,98.39
2018-12-03T13:04:01.721Z,98.82
2018-12-03T13:06:32.915Z,99.81
2018-12-03T13:09:05.911Z,100.00
2018-12-03T13:11:37.752Z,100.00
2018-12-03T13:14:11.791Z,100.00
2018-12-03T13:16:43.083Z,100.00
2018-12-03T13:19:14.044Z,100.00
2018-12-03T13:21:45.836Z,100.00
2018-12-03T13:24:18.242Z,100.00
2018-12-03T13:26:49.858Z,100.00
2018-12-03T13:29:21.211Z,100.00
2018-12-03T13:31:52.948Z,100.00
2018-12-03T13:34:23.963Z,100.00
2018-12-03T13:36:55.734Z,100.00
2018-12-03T13:39:26.869Z,100.00
2018-12-03T13:41:58.495Z,100.00
2018-12-03T13:44:29.967Z,100.00
2018-12-03T13:47:01.331Z,100.00
2018-12-03T13:49:32.492Z,100.00
2018-12-03T13:52:03.909Z,100.00
2018-12-03T13:54:35.278Z,100.00
2018-12-03T13:57:06.871Z,100.00
2018-12-03T13:59:38.119Z,100.00
2018-12-03T14:02:10.976Z,100.00
2018-12-03T14:04:43.146Z,100.00
2018-12-03T14:07:34.370Z,100.00
2018-12-03T14:12:00.788Z,100.00
2018-12-03T14:14:55.173Z,100.00
2018-12-03T14:17:51.140Z,100.00
2018-12-03T14:20:23.784Z,100.00
2018-12-03T14:23:01.277Z,100.00
2018-12-03T14:25:33.146Z,100.00
2018-12-03T14:28:07.199Z,100.00
2018-12-03T14:30:38.838Z,100.00
2018-12-03T14:33:11.130Z,100.00
2018-12-03T14:35:42.946Z,100.00
2018-12-03T14:38:15.201Z,100.00
2018-12-03T14:40:47.014Z,100.00
2018-12-03T14:43:18.523Z,100.00
2018-12-03T14:45:50.251Z,100.00
2018-12-03T14:48:22.973Z,100.00
2018-12-03T14:50:55.749Z,100.00
2018-12-03T14:53:27.229Z,100.00
2018-12-03T14:55:58.397Z,100.00
2018-12-03T14:58:30.339Z,100.00
2018-12-03T15:01:01.986Z,100.00
2018-12-03T15:03:33.690Z,100.00
2018-12-03T15:06:05.004Z,100.00
2018-12-03T15:08:37.254Z,100.00
2018-12-03T15:11:08.254Z,100.00
2018-12-03T15:13:40.173Z,100.00
2018-12-03T15:16:11.975Z,100.00
2018-12-03T15:18:43.076Z,100.00
2018-12-03T15:21:14.603Z,100.00
2018-12-03T15:23:46.528Z,100.00
2018-12-03T15:26:18.045Z,100.00
2018-12-03T15:28:50.261Z,100.00
2018-12-03T15:31:21.965Z,100.00
2018-12-03T15:33:53.969Z,100.00
2018-12-03T15:36:27.551Z,100.00
2018-12-03T15:38:59.571Z,100.00
2018-12-03T15:41:33.092Z,100.00
2018-12-03T15:44:04.911Z,100.00
2018-12-03T15:46:37.049Z,100.00
2018-12-03T15:49:09.100Z,100.00
2018-12-03T15:51:42.039Z,100.00
2018-12-03T15:54:15.739Z,100.00
2018-12-03T15:56:48.970Z,100.00
2018-12-03T15:59:21.661Z,100.00
2018-12-03T16:01:54.112Z,100.00
2018-12-03T16:04:27.779Z,100.00
2018-12-03T16:07:02.172Z,100.00
2018-12-03T16:09:34.697Z,100.00
2018-12-03T16:12:08.864Z,100.00
2018-12-03T16:14:42.202Z,100.00
2018-12-03T16:17:15.230Z,100.00
2018-12-03T16:19:47.662Z,100.00
2018-12-03T16:22:20.502Z,100.00
2018-12-03T16:24:53.435Z,100.00
2018-12-03T16:27:28.217Z,100.00
2018-12-03T16:30:09.154Z,100.00
2018-12-03T16:32:53.433Z,100.00
2018-12-03T16:35:30.972Z,100.00
2018-12-03T16:40:54.063Z,100.00
2018-12-03T16:43:26.806Z,100.00
2018-12-03T16:45:59.554Z,100.00
2018-12-03T16:48:32.273Z,100.00
2018-12-03T16:51:05.357Z,100.00
2018-12-03T16:53:38.275Z,100.00
2018-12-03T16:56:10.991Z,100.00
2018-12-03T16:58:45.408Z,100.00
2018-12-03T17:01:18.349Z,100.00
2018-12-03T17:03:51.453Z,100.00
2018-12-03T17:06:25.775Z,100.00
2018-12-03T17:08:58.915Z,100.00
2018-12-03T17:11:31.580Z,100.00
2018-12-03T17:14:11.656Z,100.00
2018-12-03T17:16:45.477Z,100.00
2018-12-03T17:19:19.806Z,100.00
2018-12-03T17:22:05.217Z,100.00
2018-12-03T17:24:40.282Z,100.00
2018-12-03T17:27:13.838Z,100.00
2018-12-03T17:29:46.833Z,100.00
2018-12-03T17:32:21.384Z,100.00
2018-12-03T17:34:54.411Z,100.00
2018-12-03T17:37:27.825Z,100.00
2018-12-03T17:40:00.621Z,100.00
2018-12-03T17:42:33.439Z,100.00
2018-12-03T17:45:07.920Z,100.00
2018-12-03T17:47:40.974Z,100.00
2018-12-03T17:50:15.079Z,100.00
2018-12-03T17:52:47.994Z,100.00
2018-12-03T17:55:20.886Z,100.00
2018-12-03T17:57:54.001Z,100.00
2018-12-03T18:00:27.047Z,100.00
2018-12-03T18:03:00.471Z,100.00
2018-12-03T18:05:33.508Z,100.00
2018-12-03T18:08:06.063Z,100.00
2018-12-03T18:10:38.940Z,100.00
2018-12-03T18:13:12.249Z,100.00
2018-12-03T18:15:45.102Z,100.00
2018-12-03T18:18:18.569Z,100.00
2018-12-03T18:20:51.377Z,100.00
2018-12-03T18:23:24.886Z,100.00
2018-12-03T18:25:58.211Z,100.00
2018-12-03T18:28:32.483Z,100.00
2018-12-03T18:31:05.678Z,100.00
2018-12-03T18:33:40.741Z,100.00
2018-12-03T18:36:14.082Z,100.00
2018-12-03T18:38:46.814Z,100.00
2018-12-03T18:41:19.474Z,100.00
2018-12-03T18:43:52.461Z,100.00
2018-12-03T18:46:24.901Z,100.00
2018-12-03T18:49:06.881Z,100.00
2018-12-03T18:51:39.823Z,100.00
2018-12-03T18:54:13.211Z,100.00
2018-12-03T18:56:46.892Z,100.00
2018-12-03T18:59:21.856Z,100.00
2018-12-03T19:04:41.158Z,100.00
2018-12-03T19:07:13.728Z,100.00
2018-12-03T19:09:46.995Z,100.00
2018-12-03T19:12:19.647Z,100.00
2018-12-03T19:14:53.745Z,100.00
2018-12-03T19:17:26.651Z,100.00
2018-12-03T19:19:59.615Z,100.00
2018-12-03T19:22:33.353Z,100.00
2018-12-03T19:25:06.059Z,100.00
2018-12-03T19:27:39.133Z,100.00
2018-12-03T19:30:15.069Z,100.00
2018-12-03T19:32:47.688Z,100.00
2018-12-03T19:35:21.638Z,100.00
2018-12-03T19:37:55.427Z,100.00
2018-12-03T19:40:28.521Z,100.00
2018-12-03T19:43:01.156Z,100.00
2018-12-03T19:45:34.287Z,100.00
2018-12-03T19:48:07.331Z,100.00
2018-12-03T19:50:40.056Z,100.00
2018-12-03T19:53:13.624Z,100.00
2018-12-03T19:55:48.253Z,100.00
2018-12-03T19:58:28.283Z,100.00
2018-12-03T20:01:02.098Z,100.00
2018-12-03T20:03:35.001Z,100.00
2018-12-03T20:06:08.331Z,100.00
2018-12-03T20:08:41.732Z,100.00
2018-12-03T20:11:14.816Z,100.00
2018-12-03T20:13:47.860Z,100.00
2018-12-03T20:16:20.956Z,100.00
2018-12-03T20:18:54.491Z,100.00
2018-12-03T20:21:28.743Z,100.00
2018-12-03T20:24:08.221Z,100.00
2018-12-03T20:26:50.417Z,100.00
2018-12-03T20:29:40.507Z,100.00
2018-12-03T20:32:39.967Z,100.00
2018-12-03T20:35:23.515Z,100.00
2018-12-03T20:38:14.225Z,100.00
2018-12-03T20:41:06.432Z,100.00
2018-12-03T20:43:40.794Z,100.00
2018-12-03T20:47:25.664Z,100.00
2018-12-03T20:51:08.651Z,100.00
2018-12-03T20:53:49.653Z,100.00
2018-12-03T20:56:22.334Z,100.00
2018-12-03T20:58:55.427Z,100.00
2018-12-03T21:01:29.535Z,100.00
2018-12-03T21:04:02.268Z,100.00
2018-12-03T21:06:35.952Z,100.00
2018-12-03T21:09:09.604Z,100.00
2018-12-03T21:11:42.265Z,100.00
2018-12-03T21:14:20.133Z,100.00
2018-12-03T21:16:51.508Z,100.00
2018-12-03T21:19:24.655Z,100.00
2018-12-03T21:21:59.668Z,100.00
2018-12-03T21:24:33.351Z,100.00
2018-12-03T21:27:07.731Z,100.00
2018-12-03T21:29:41.150Z,100.00
2018-12-03T21:32:15.901Z,100.00
2018-12-03T21:34:49.654Z,100.00
2018-12-03T21:37:24.067Z,100.00
2018-12-03T21:39:59.819Z,100.00
2018-12-03T21:42:39.731Z,100.00
2018-12-03T21:45:16.110Z,100.00
2018-12-03T21:47:52.305Z,100.00
2018-12-03T21:50:26.672Z,100.00
2018-12-03T21:53:04.212Z,100.00
2018-12-03T21:55:41.723Z,100.00
2018-12-03T21:58:16.725Z,100.00
2018-12-03T22:00:50.763Z,100.00
2018-12-03T22:03:24.709Z,100.00
2018-12-03T22:05:58.466Z,100.00
2018-12-03T22:08:33.183Z,100.00
2018-12-03T22:11:07.991Z,100.00
2018-12-03T22:13:41.670Z,100.00
2018-12-03T22:16:15.169Z,100.00
2018-12-03T22:18:50.858Z,100.00
2018-12-03T22:21:26.413Z,100.00
2018-12-03T22:24:00.739Z,100.00
2018-12-03T22:26:35.430Z,100.00
2018-12-03T22:29:08.193Z,100.00
2018-12-03T22:31:39.980Z,100.00
2018-12-03T22:34:12.095Z,100.00
2018-12-03T22:36:45.802Z,100.00
2018-12-03T22:39:18.615Z,100.00
2018-12-03T22:41:52.932Z,100.00
2018-12-03T22:44:24.143Z,100.00
2018-12-03T22:46:56.039Z,100.00
2018-12-03T22:49:28.846Z,100.00
2018-12-03T22:52:00.565Z,100.00
2018-12-03T22:54:33.051Z,100.00
2018-12-03T22:57:05.991Z,100.00
2018-12-03T22:59:42.728Z,100.00
2018-12-03T23:02:14.885Z,100.00
2018-12-03T23:04:46.386Z,100.00
2018-12-03T23:07:20.198Z,100.00
2018-12-03T23:09:54.772Z,100.00
2018-12-03T23:12:26.883Z,100.00
2018-12-03T23:15:00.194Z,100.00
2018-12-03T23:17:34.113Z,100.00
2018-12-03T23:20:06.050Z,100.00
2018-12-03T23:22:38.337Z,100.00
2018-12-03T23:25:14.098Z,100.00
2018-12-03T23:27:47.422Z,100.00
2018-12-03T23:30:20.195Z,100.00
2018-12-03T23:35:34.450Z,100.00
2018-12-03T23:38:05.405Z,100.00
2018-12-03T23:40:36.196Z,100.00
2018-12-03T23:43:07.069Z,100.00
2018-12-03T23:45:37.808Z,100.00
2018-12-03T23:48:08.615Z,100.00
2018-12-03T23:50:40.243Z,100.00
2018-12-03T23:53:11.057Z,100.00
2018-12-03T23:55:42.280Z,100.00
2018-12-03T23:58:13.174Z,100.00
